sensor_id;sensor_type;location;lat;lon;timestamp;temperature;humidity
15288;DHT22;7745;48.708;9.026;2023-12-07T00:01:26;1.70;99.90
15288;DHT22;7745;48.708;9.026;2023-12-07T00:03:52;1.70;99.90
15288;DHT22;7745;48.708;9.026;2023-12-07T00:06:19;1.70;99.90
15288;DHT22;7745;48.708;9.026;2023-12-07T00:08:46;1.70;99.90
15288;DHT22;7745;48.708;9.026;2023-12-07T00:11:13;1.70;99.90
15288;DHT22;7745;48.708;9.026;2023-12-07T00:13:41;1.70;99.90
15288;DHT22;7745;48.708;9.026;2023-12-07T00:16:08;1.70;99.90
15288;DHT22;7745;48.708;9.026;2023-12-07T00:18:34;1.80;99.90
15288;DHT22;7745;48.708;9.026;2023-12-07T00:21:01;1.80;99.90
15288;DHT22;7745;48.708;9.026;2023-12-07T00:23:28;1.80;99.90
15288;DHT22;7745;48.708;9.026;2023-12-07T00:25:55;1.80;99.90
15288;DHT22;7745;48.708;9.026;2023-12-07T00:28:21;1.80;99.90
15288;DHT22;7745;48.708;9.026;2023-12-07T00:30:49;1.80;99.90
15288;DHT22;7745;48.708;9.026;2023-12-07T00:33:16;1.80;99.90
15288;DHT22;7745;48.708;9.026;2023-12-07T00:35:43;1.80;99.90
15288;DHT22;7745;48.708;9.026;2023-12-07T00:38:10;1.80;99.90
15288;DHT22;7745;48.708;9.026;2023-12-07T00:40:37;1.80;99.90
15288;DHT22;7745;48.708;9.026;2023-12-07T00:43:05;1.80;99.90
15288;DHT22;7745;48.708;9.026;2023-12-07T00:45:32;1.80;99.90
15288;DHT22;7745;48.708;9.026;2023-12-07T00:48:00;1.80;99.90
15288;DHT22;7745;48.708;9.026;2023-12-07T00:50:27;1.80;99.90
15288;DHT22;7745;48.708;9.026;2023-12-07T00:52:54;1.80;99.90
15288;DHT22;7745;48.708;9.026;2023-12-07T00:55:20;1.70;99.90
15288;DHT22;7745;48.708;9.026;2023-12-07T00:57:47;1.70;99.90
15288;DHT22;7745;48.708;9.026;2023-12-07T01:00:15;1.70;99.90
15288;DHT22;7745;48.708;9.026;2023-12-07T01:02:41;1.70;99.90
15288;DHT22;7745;48.708;9.026;2023-12-07T01:05:10;1.80;99.90
15288;DHT22;7745;48.708;9.026;2023-12-07T01:07:36;1.70;99.90
15288;DHT22;7745;48.708;9.026;2023-12-07T01:10:04;2.20;99.90
15288;DHT22;7745;48.708;9.026;2023-12-07T01:12:31;1.80;99.90
15288;DHT22;7745;48.708;9.026;2023-12-07T01:14:58;1.80;99.90
15288;DHT22;7745;48.708;9.026;2023-12-07T01:17:24;1.70;99.90
15288;DHT22;7745;48.708;9.026;2023-12-07T01:19:51;1.70;99.90
15288;DHT22;7745;48.708;9.026;2023-12-07T01:22:19;1.70;99.90
15288;DHT22;7745;48.708;9.026;2023-12-07T01:24:46;1.70;99.90
15288;DHT22;7745;48.708;9.026;2023-12-07T01:27:13;1.70;99.90
15288;DHT22;7745;48.708;9.026;2023-12-07T01:29:40;1.70;99.90
15288;DHT22;7745;48.708;9.026;2023-12-07T01:32:07;1.70;99.90
15288;DHT22;7745;48.708;9.026;2023-12-07T01:34:34;1.70;99.90
15288;DHT22;7745;48.708;9.026;2023-12-07T01:37:01;1.60;99.90
15288;DHT22;7745;48.708;9.026;2023-12-07T01:39:29;1.50;99.90
15288;DHT22;7745;48.708;9.026;2023-12-07T01:41:55;1.50;99.90
15288;DHT22;7745;48.708;9.026;2023-12-07T01:44:22;1.50;99.90
15288;DHT22;7745;48.708;9.026;2023-12-07T01:46:49;1.40;99.90
15288;DHT22;7745;48.708;9.026;2023-12-07T01:49:16;1.40;99.90
15288;DHT22;7745;48.708;9.026;2023-12-07T01:51:43;1.30;99.90
15288;DHT22;7745;48.708;9.026;2023-12-07T01:54:10;1.30;99.90
15288;DHT22;7745;48.708;9.026;2023-12-07T01:56:38;1.20;99.90
15288;DHT22;7745;48.708;9.026;2023-12-07T01:59:05;1.20;99.90
15288;DHT22;7745;48.708;9.026;2023-12-07T02:01:31;1.20;99.90
15288;DHT22;7745;48.708;9.026;2023-12-07T02:03:58;1.20;99.90
15288;DHT22;7745;48.708;9.026;2023-12-07T02:06:25;1.20;99.90
15288;DHT22;7745;48.708;9.026;2023-12-07T02:08:52;1.20;99.90
15288;DHT22;7745;48.708;9.026;2023-12-07T02:11:19;1.20;99.90
15288;DHT22;7745;48.708;9.026;2023-12-07T02:13:47;1.20;99.90
15288;DHT22;7745;48.708;9.026;2023-12-07T02:16:23;1.20;99.90
15288;DHT22;7745;48.708;9.026;2023-12-07T02:18:59;1.10;99.90
15288;DHT22;7745;48.708;9.026;2023-12-07T02:21:31;1.10;99.90
15288;DHT22;7745;48.708;9.026;2023-12-07T02:24:01;1.10;99.90
15288;DHT22;7745;48.708;9.026;2023-12-07T02:26:32;1.10;99.90
15288;DHT22;7745;48.708;9.026;2023-12-07T02:28:58;1.10;99.90
15288;DHT22;7745;48.708;9.026;2023-12-07T02:31:25;1.10;99.90
15288;DHT22;7745;48.708;9.026;2023-12-07T02:33:52;1.10;99.90
15288;DHT22;7745;48.708;9.026;2023-12-07T02:36:21;1.00;99.90
15288;DHT22;7745;48.708;9.026;2023-12-07T02:38:49;1.00;99.90
15288;DHT22;7745;48.708;9.026;2023-12-07T02:41:18;1.00;99.90
15288;DHT22;7745;48.708;9.026;2023-12-07T02:43:47;1.00;99.90
15288;DHT22;7745;48.708;9.026;2023-12-07T02:46:14;0.90;99.90
15288;DHT22;7745;48.708;9.026;2023-12-07T02:48:40;0.90;99.90
15288;DHT22;7745;48.708;9.026;2023-12-07T02:51:07;1.00;99.90
15288;DHT22;7745;48.708;9.026;2023-12-07T02:53:34;1.00;99.90
15288;DHT22;7745;48.708;9.026;2023-12-07T02:56:00;0.90;99.90
15288;DHT22;7745;48.708;9.026;2023-12-07T02:58:27;1.00;99.90
15288;DHT22;7745;48.708;9.026;2023-12-07T03:00:55;0.90;99.90
15288;DHT22;7745;48.708;9.026;2023-12-07T03:03:22;0.90;99.90
15288;DHT22;7745;48.708;9.026;2023-12-07T03:05:49;0.80;99.90
15288;DHT22;7745;48.708;9.026;2023-12-07T03:08:16;0.80;99.90
15288;DHT22;7745;48.708;9.026;2023-12-07T03:10:43;0.80;99.90
15288;DHT22;7745;48.708;9.026;2023-12-07T03:13:10;0.70;99.90
15288;DHT22;7745;48.708;9.026;2023-12-07T03:15:36;0.70;99.90
15288;DHT22;7745;48.708;9.026;2023-12-07T03:18:04;0.70;99.90
15288;DHT22;7745;48.708;9.026;2023-12-07T03:20:33;0.60;99.90
15288;DHT22;7745;48.708;9.026;2023-12-07T03:23:00;0.60;99.90
15288;DHT22;7745;48.708;9.026;2023-12-07T03:25:27;0.60;99.90
15288;DHT22;7745;48.708;9.026;2023-12-07T03:27:53;0.60;99.90
15288;DHT22;7745;48.708;9.026;2023-12-07T03:30:20;0.60;99.90
15288;DHT22;7745;48.708;9.026;2023-12-07T03:32:47;0.50;99.90
15288;DHT22;7745;48.708;9.026;2023-12-07T03:35:15;0.50;99.90
15288;DHT22;7745;48.708;9.026;2023-12-07T03:37:42;0.40;99.90
15288;DHT22;7745;48.708;9.026;2023-12-07T03:40:10;0.40;99.90
15288;DHT22;7745;48.708;9.026;2023-12-07T03:42:36;0.40;99.90
15288;DHT22;7745;48.708;9.026;2023-12-07T03:45:03;0.40;99.90
15288;DHT22;7745;48.708;9.026;2023-12-07T03:47:29;0.30;99.90
15288;DHT22;7745;48.708;9.026;2023-12-07T03:49:56;0.30;99.90
15288;DHT22;7745;48.708;9.026;2023-12-07T03:52:24;0.30;99.90
15288;DHT22;7745;48.708;9.026;2023-12-07T03:54:51;0.30;99.90
15288;DHT22;7745;48.708;9.026;2023-12-07T03:57:18;0.20;99.90
15288;DHT22;7745;48.708;9.026;2023-12-07T03:59:46;0.20;99.90
15288;DHT22;7745;48.708;9.026;2023-12-07T04:02:12;0.20;99.90
15288;DHT22;7745;48.708;9.026;2023-12-07T04:04:41;0.20;99.90
15288;DHT22;7745;48.708;9.026;2023-12-07T04:07:08;0.20;99.90
15288;DHT22;7745;48.708;9.026;2023-12-07T04:09:36;0.20;99.90
15288;DHT22;7745;48.708;9.026;2023-12-07T04:12:03;0.10;99.90
15288;DHT22;7745;48.708;9.026;2023-12-07T04:14:30;0.10;99.90
15288;DHT22;7745;48.708;9.026;2023-12-07T04:16:57;0.10;99.90
15288;DHT22;7745;48.708;9.026;2023-12-07T04:19:24;0.00;99.90
15288;DHT22;7745;48.708;9.026;2023-12-07T04:21:50;0.00;99.90
15288;DHT22;7745;48.708;9.026;2023-12-07T04:24:17;0.00;99.90
15288;DHT22;7745;48.708;9.026;2023-12-07T04:26:45;0.00;99.90
15288;DHT22;7745;48.708;9.026;2023-12-07T04:29:14;0.00;99.90
15288;DHT22;7745;48.708;9.026;2023-12-07T04:31:41;-0.10;99.90
15288;DHT22;7745;48.708;9.026;2023-12-07T04:34:08;-0.10;99.90
15288;DHT22;7745;48.708;9.026;2023-12-07T04:36:34;-0.20;99.90
15288;DHT22;7745;48.708;9.026;2023-12-07T04:39:01;-0.20;99.90
15288;DHT22;7745;48.708;9.026;2023-12-07T04:41:28;-0.20;99.90
15288;DHT22;7745;48.708;9.026;2023-12-07T04:43:57;-0.20;99.90
15288;DHT22;7745;48.708;9.026;2023-12-07T04:46:23;-0.20;99.90
15288;DHT22;7745;48.708;9.026;2023-12-07T04:48:50;-0.20;99.90
15288;DHT22;7745;48.708;9.026;2023-12-07T04:51:17;-0.20;99.90
15288;DHT22;7745;48.708;9.026;2023-12-07T04:53:44;-0.30;99.90
15288;DHT22;7745;48.708;9.026;2023-12-07T04:56:11;-0.30;99.90
15288;DHT22;7745;48.708;9.026;2023-12-07T04:58:38;-0.30;99.90
15288;DHT22;7745;48.708;9.026;2023-12-07T05:01:06;-0.30;99.90
15288;DHT22;7745;48.708;9.026;2023-12-07T05:03:32;-0.30;99.90
15288;DHT22;7745;48.708;9.026;2023-12-07T05:05:59;-0.40;99.90
15288;DHT22;7745;48.708;9.026;2023-12-07T05:08:26;-0.40;99.90
15288;DHT22;7745;48.708;9.026;2023-12-07T05:10:53;-0.40;99.90
15288;DHT22;7745;48.708;9.026;2023-12-07T05:13:20;-0.40;99.90
15288;DHT22;7745;48.708;9.026;2023-12-07T05:15:46;-0.40;99.90
15288;DHT22;7745;48.708;9.026;2023-12-07T05:18:14;-0.40;99.90
15288;DHT22;7745;48.708;9.026;2023-12-07T05:20:41;-0.50;99.90
15288;DHT22;7745;48.708;9.026;2023-12-07T05:23:08;-0.50;99.90
15288;DHT22;7745;48.708;9.026;2023-12-07T05:25:35;-0.50;99.90
15288;DHT22;7745;48.708;9.026;2023-12-07T05:28:02;-0.60;99.90
15288;DHT22;7745;48.708;9.026;2023-12-07T05:30:28;-0.60;99.90
15288;DHT22;7745;48.708;9.026;2023-12-07T05:32:55;-0.60;99.90
15288;DHT22;7745;48.708;9.026;2023-12-07T05:35:24;-0.60;99.90
15288;DHT22;7745;48.708;9.026;2023-12-07T05:37:50;-0.60;99.90
15288;DHT22;7745;48.708;9.026;2023-12-07T05:40:17;-0.60;99.90
15288;DHT22;7745;48.708;9.026;2023-12-07T05:42:47;-0.60;99.90
15288;DHT22;7745;48.708;9.026;2023-12-07T05:45:14;-0.70;99.90
15288;DHT22;7745;48.708;9.026;2023-12-07T05:47:41;-0.70;99.90
15288;DHT22;7745;48.708;9.026;2023-12-07T05:50:08;-0.70;99.90
15288;DHT22;7745;48.708;9.026;2023-12-07T05:52:36;-0.70;99.90
15288;DHT22;7745;48.708;9.026;2023-12-07T05:55:04;-0.70;99.90
15288;DHT22;7745;48.708;9.026;2023-12-07T05:57:31;-0.70;99.90
15288;DHT22;7745;48.708;9.026;2023-12-07T05:59:58;-0.80;99.90
15288;DHT22;7745;48.708;9.026;2023-12-07T06:02:25;-0.80;99.90
15288;DHT22;7745;48.708;9.026;2023-12-07T06:04:52;-0.90;99.90
15288;DHT22;7745;48.708;9.026;2023-12-07T06:07:19;-0.90;99.90
15288;DHT22;7745;48.708;9.026;2023-12-07T06:09:47;-0.90;99.90
15288;DHT22;7745;48.708;9.026;2023-12-07T06:12:13;-0.90;99.90
15288;DHT22;7745;48.708;9.026;2023-12-07T06:14:40;-0.90;99.90
15288;DHT22;7745;48.708;9.026;2023-12-07T06:17:07;-0.90;99.90
15288;DHT22;7745;48.708;9.026;2023-12-07T06:19:34;-0.90;99.90
15288;DHT22;7745;48.708;9.026;2023-12-07T06:22:01;-1.00;99.90
15288;DHT22;7745;48.708;9.026;2023-12-07T06:24:28;-1.00;99.90
15288;DHT22;7745;48.708;9.026;2023-12-07T06:26:56;-1.00;99.90
15288;DHT22;7745;48.708;9.026;2023-12-07T06:29:23;-1.00;99.90
15288;DHT22;7745;48.708;9.026;2023-12-07T06:31:49;-1.10;99.90
15288;DHT22;7745;48.708;9.026;2023-12-07T06:34:16;-1.00;99.90
15288;DHT22;7745;48.708;9.026;2023-12-07T06:36:43;-1.00;99.90
15288;DHT22;7745;48.708;9.026;2023-12-07T06:39:10;-1.00;99.90
15288;DHT22;7745;48.708;9.026;2023-12-07T06:41:37;-1.10;99.90
15288;DHT22;7745;48.708;9.026;2023-12-07T06:44:06;-1.10;99.90
15288;DHT22;7745;48.708;9.026;2023-12-07T06:46:33;-1.10;99.90
15288;DHT22;7745;48.708;9.026;2023-12-07T06:49:00;-1.10;99.90
15288;DHT22;7745;48.708;9.026;2023-12-07T06:51:27;-1.10;99.90
15288;DHT22;7745;48.708;9.026;2023-12-07T06:53:54;-1.10;99.90
15288;DHT22;7745;48.708;9.026;2023-12-07T06:56:20;-1.10;99.90
15288;DHT22;7745;48.708;9.026;2023-12-07T06:58:47;-1.10;99.90
15288;DHT22;7745;48.708;9.026;2023-12-07T07:01:15;-1.10;99.90
15288;DHT22;7745;48.708;9.026;2023-12-07T07:03:42;-1.10;99.90
15288;DHT22;7745;48.708;9.026;2023-12-07T07:06:09;-1.10;99.90
15288;DHT22;7745;48.708;9.026;2023-12-07T07:08:35;-1.10;99.90
15288;DHT22;7745;48.708;9.026;2023-12-07T07:11:09;-1.10;99.90
15288;DHT22;7745;48.708;9.026;2023-12-07T07:13:37;-1.20;99.90
15288;DHT22;7745;48.708;9.026;2023-12-07T07:16:04;-1.20;99.90
15288;DHT22;7745;48.708;9.026;2023-12-07T07:18:32;-1.20;99.90
15288;DHT22;7745;48.708;9.026;2023-12-07T07:21:00;-1.20;99.90
15288;DHT22;7745;48.708;9.026;2023-12-07T07:23:29;-1.20;99.90
15288;DHT22;7745;48.708;9.026;2023-12-07T07:25:56;-1.10;99.90
15288;DHT22;7745;48.708;9.026;2023-12-07T07:28:23;-1.10;99.90
15288;DHT22;7745;48.708;9.026;2023-12-07T07:30:49;-1.10;99.90
15288;DHT22;7745;48.708;9.026;2023-12-07T07:33:17;-1.10;99.90
15288;DHT22;7745;48.708;9.026;2023-12-07T07:35:45;-1.00;99.90
15288;DHT22;7745;48.708;9.026;2023-12-07T07:38:12;-1.00;99.90
15288;DHT22;7745;48.708;9.026;2023-12-07T07:40:39;-1.00;99.90
15288;DHT22;7745;48.708;9.026;2023-12-07T07:43:07;-1.00;99.90
15288;DHT22;7745;48.708;9.026;2023-12-07T07:45:34;-1.00;99.90
15288;DHT22;7745;48.708;9.026;2023-12-07T07:48:01;-1.00;99.90
15288;DHT22;7745;48.708;9.026;2023-12-07T07:50:28;-0.90;99.90
15288;DHT22;7745;48.708;9.026;2023-12-07T07:52:56;-0.90;99.90
15288;DHT22;7745;48.708;9.026;2023-12-07T07:55:23;-0.90;99.90
15288;DHT22;7745;48.708;9.026;2023-12-07T07:57:49;-0.90;99.90
15288;DHT22;7745;48.708;9.026;2023-12-07T08:00:17;-0.80;99.90
15288;DHT22;7745;48.708;9.026;2023-12-07T08:02:44;-0.80;99.90
15288;DHT22;7745;48.708;9.026;2023-12-07T08:05:11;-0.80;99.90
15288;DHT22;7745;48.708;9.026;2023-12-07T08:07:38;-0.70;99.90
15288;DHT22;7745;48.708;9.026;2023-12-07T08:10:08;-0.70;99.90
15288;DHT22;7745;48.708;9.026;2023-12-07T08:12:35;-0.60;99.90
15288;DHT22;7745;48.708;9.026;2023-12-07T08:15:02;-0.60;99.90
15288;DHT22;7745;48.708;9.026;2023-12-07T08:17:30;-0.50;99.90
15288;DHT22;7745;48.708;9.026;2023-12-07T08:19:56;-0.50;99.90
15288;DHT22;7745;48.708;9.026;2023-12-07T08:22:24;-0.40;99.90
15288;DHT22;7745;48.708;9.026;2023-12-07T08:24:51;-0.30;99.90
15288;DHT22;7745;48.708;9.026;2023-12-07T08:27:19;-0.30;99.90
15288;DHT22;7745;48.708;9.026;2023-12-07T08:29:46;-0.20;99.90
15288;DHT22;7745;48.708;9.026;2023-12-07T08:32:13;0.20;99.90
15288;DHT22;7745;48.708;9.026;2023-12-07T08:34:41;-0.10;99.90
15288;DHT22;7745;48.708;9.026;2023-12-07T08:37:08;0.00;99.90
15288;DHT22;7745;48.708;9.026;2023-12-07T08:39:34;0.00;99.90
15288;DHT22;7745;48.708;9.026;2023-12-07T08:42:01;0.10;99.90
15288;DHT22;7745;48.708;9.026;2023-12-07T08:44:29;0.20;99.90
15288;DHT22;7745;48.708;9.026;2023-12-07T08:46:56;0.20;99.90
15288;DHT22;7745;48.708;9.026;2023-12-07T08:49:23;0.30;99.90
15288;DHT22;7745;48.708;9.026;2023-12-07T08:51:51;0.30;99.90
15288;DHT22;7745;48.708;9.026;2023-12-07T08:54:18;0.30;99.90
15288;DHT22;7745;48.708;9.026;2023-12-07T08:56:45;0.40;99.90
15288;DHT22;7745;48.708;9.026;2023-12-07T08:59:12;0.40;99.90
15288;DHT22;7745;48.708;9.026;2023-12-07T09:01:40;0.40;99.90
15288;DHT22;7745;48.708;9.026;2023-12-07T09:04:07;0.50;99.90
15288;DHT22;7745;48.708;9.026;2023-12-07T09:06:35;0.60;99.90
15288;DHT22;7745;48.708;9.026;2023-12-07T09:09:02;0.70;99.90
15288;DHT22;7745;48.708;9.026;2023-12-07T09:11:30;0.70;99.90
15288;DHT22;7745;48.708;9.026;2023-12-07T09:13:57;0.80;99.90
15288;DHT22;7745;48.708;9.026;2023-12-07T09:16:24;0.80;99.90
15288;DHT22;7745;48.708;9.026;2023-12-07T09:18:52;1.00;99.90
15288;DHT22;7745;48.708;9.026;2023-12-07T09:21:20;1.00;99.90
15288;DHT22;7745;48.708;9.026;2023-12-07T09:23:46;1.10;99.90
15288;DHT22;7745;48.708;9.026;2023-12-07T09:26:13;1.20;99.90
15288;DHT22;7745;48.708;9.026;2023-12-07T09:28:40;1.40;99.90
15288;DHT22;7745;48.708;9.026;2023-12-07T09:31:07;1.30;99.90
15288;DHT22;7745;48.708;9.026;2023-12-07T09:33:34;1.40;99.90
15288;DHT22;7745;48.708;9.026;2023-12-07T09:36:02;1.50;99.90
15288;DHT22;7745;48.708;9.026;2023-12-07T09:38:35;1.50;99.90
15288;DHT22;7745;48.708;9.026;2023-12-07T09:41:02;2.10;99.90
15288;DHT22;7745;48.708;9.026;2023-12-07T09:43:28;1.70;99.90
15288;DHT22;7745;48.708;9.026;2023-12-07T09:45:57;1.70;99.90
15288;DHT22;7745;48.708;9.026;2023-12-07T09:48:25;1.80;99.90
15288;DHT22;7745;48.708;9.026;2023-12-07T09:50:52;1.80;99.90
15288;DHT22;7745;48.708;9.026;2023-12-07T09:53:23;2.40;99.90
15288;DHT22;7745;48.708;9.026;2023-12-07T09:55:50;1.90;99.90
15288;DHT22;7745;48.708;9.026;2023-12-07T09:58:16;1.90;99.90
15288;DHT22;7745;48.708;9.026;2023-12-07T10:00:43;2.00;99.90
15288;DHT22;7745;48.708;9.026;2023-12-07T10:03:20;2.00;99.90
15288;DHT22;7745;48.708;9.026;2023-12-07T10:05:54;2.10;99.90
15288;DHT22;7745;48.708;9.026;2023-12-07T10:08:29;2.20;99.90
15288;DHT22;7745;48.708;9.026;2023-12-07T10:11:04;2.70;99.90
15288;DHT22;7745;48.708;9.026;2023-12-07T10:13:32;2.30;99.90
15288;DHT22;7745;48.708;9.026;2023-12-07T10:16:07;2.40;99.90
15288;DHT22;7745;48.708;9.026;2023-12-07T10:18:35;2.40;99.90
15288;DHT22;7745;48.708;9.026;2023-12-07T10:21:02;2.50;99.90
15288;DHT22;7745;48.708;9.026;2023-12-07T10:23:31;2.50;99.90
15288;DHT22;7745;48.708;9.026;2023-12-07T10:25:59;2.60;99.90
15288;DHT22;7745;48.708;9.026;2023-12-07T10:28:26;2.60;99.90
15288;DHT22;7745;48.708;9.026;2023-12-07T10:30:53;2.70;99.90
15288;DHT22;7745;48.708;9.026;2023-12-07T10:33:20;2.80;99.90
15288;DHT22;7745;48.708;9.026;2023-12-07T10:35:47;2.80;99.90
15288;DHT22;7745;48.708;9.026;2023-12-07T10:38:15;2.90;99.90
15288;DHT22;7745;48.708;9.026;2023-12-07T10:40:46;3.40;99.90
15288;DHT22;7745;48.708;9.026;2023-12-07T10:43:15;3.10;99.90
15288;DHT22;7745;48.708;9.026;2023-12-07T10:45:43;3.10;99.90
15288;DHT22;7745;48.708;9.026;2023-12-07T10:48:11;3.40;99.90
15288;DHT22;7745;48.708;9.026;2023-12-07T10:50:41;3.20;99.90
15288;DHT22;7745;48.708;9.026;2023-12-07T10:53:11;3.20;99.90
15288;DHT22;7745;48.708;9.026;2023-12-07T10:55:45;3.10;99.90
15288;DHT22;7745;48.708;9.026;2023-12-07T10:58:14;3.10;99.90
15288;DHT22;7745;48.708;9.026;2023-12-07T11:00:43;3.20;99.90
15288;DHT22;7745;48.708;9.026;2023-12-07T11:03:14;3.10;99.90
15288;DHT22;7745;48.708;9.026;2023-12-07T11:05:43;3.50;99.90
15288;DHT22;7745;48.708;9.026;2023-12-07T11:08:14;3.80;99.90
15288;DHT22;7745;48.708;9.026;2023-12-07T11:10:50;3.20;99.90
15288;DHT22;7745;48.708;9.026;2023-12-07T11:13:25;3.30;99.90
15288;DHT22;7745;48.708;9.026;2023-12-07T11:15:54;3.30;99.90
15288;DHT22;7745;48.708;9.026;2023-12-07T11:18:21;3.40;99.90
15288;DHT22;7745;48.708;9.026;2023-12-07T11:20:48;3.50;99.90
15288;DHT22;7745;48.708;9.026;2023-12-07T11:23:16;3.50;99.90
15288;DHT22;7745;48.708;9.026;2023-12-07T11:25:46;3.50;99.90
15288;DHT22;7745;48.708;9.026;2023-12-07T11:28:13;3.60;99.90
15288;DHT22;7745;48.708;9.026;2023-12-07T11:30:42;3.60;99.90
15288;DHT22;7745;48.708;9.026;2023-12-07T11:33:10;3.60;99.90
15288;DHT22;7745;48.708;9.026;2023-12-07T11:36:02;3.60;99.90
15288;DHT22;7745;48.708;9.026;2023-12-07T11:38:29;3.50;99.90
15288;DHT22;7745;48.708;9.026;2023-12-07T11:40:58;3.60;99.90
15288;DHT22;7745;48.708;9.026;2023-12-07T11:43:36;3.80;99.90
15288;DHT22;7745;48.708;9.026;2023-12-07T11:46:05;3.80;99.90
15288;DHT22;7745;48.708;9.026;2023-12-07T11:48:33;3.90;99.90
15288;DHT22;7745;48.708;9.026;2023-12-07T11:51:01;4.30;99.90
15288;DHT22;7745;48.708;9.026;2023-12-07T11:53:29;3.80;99.90
15288;DHT22;7745;48.708;9.026;2023-12-07T11:55:58;3.90;99.90
15288;DHT22;7745;48.708;9.026;2023-12-07T11:58:26;4.00;99.90
15288;DHT22;7745;48.708;9.026;2023-12-07T12:00:53;4.00;99.90
15288;DHT22;7745;48.708;9.026;2023-12-07T12:03:22;4.00;99.90
15288;DHT22;7745;48.708;9.026;2023-12-07T12:05:49;4.00;99.90
15288;DHT22;7745;48.708;9.026;2023-12-07T12:08:16;4.00;99.90
15288;DHT22;7745;48.708;9.026;2023-12-07T12:10:43;3.90;99.90
15288;DHT22;7745;48.708;9.026;2023-12-07T12:13:11;3.90;99.90
15288;DHT22;7745;48.708;9.026;2023-12-07T12:15:38;3.80;99.90
15288;DHT22;7745;48.708;9.026;2023-12-07T12:18:06;3.90;99.90
15288;DHT22;7745;48.708;9.026;2023-12-07T12:20:33;3.90;99.90
15288;DHT22;7745;48.708;9.026;2023-12-07T12:23:01;4.20;99.90
15288;DHT22;7745;48.708;9.026;2023-12-07T12:25:29;3.90;99.90
15288;DHT22;7745;48.708;9.026;2023-12-07T12:27:57;3.90;99.90
15288;DHT22;7745;48.708;9.026;2023-12-07T12:30:28;4.00;99.90
15288;DHT22;7745;48.708;9.026;2023-12-07T12:32:56;4.10;99.90
15288;DHT22;7745;48.708;9.026;2023-12-07T12:35:23;4.10;99.90
15288;DHT22;7745;48.708;9.026;2023-12-07T12:37:50;4.50;99.90
15288;DHT22;7745;48.708;9.026;2023-12-07T12:40:18;4.10;99.90
15288;DHT22;7745;48.708;9.026;2023-12-07T12:42:46;4.00;99.90
15288;DHT22;7745;48.708;9.026;2023-12-07T12:45:13;3.90;99.90
15288;DHT22;7745;48.708;9.026;2023-12-07T12:47:43;3.90;99.90
15288;DHT22;7745;48.708;9.026;2023-12-07T12:50:10;3.90;99.90
15288;DHT22;7745;48.708;9.026;2023-12-07T12:52:39;4.20;99.90
15288;DHT22;7745;48.708;9.026;2023-12-07T12:55:08;4.00;99.90
15288;DHT22;7745;48.708;9.026;2023-12-07T12:57:35;4.00;99.90
15288;DHT22;7745;48.708;9.026;2023-12-07T13:00:04;4.00;99.90
15288;DHT22;7745;48.708;9.026;2023-12-07T13:02:32;4.10;99.90
15288;DHT22;7745;48.708;9.026;2023-12-07T13:05:01;4.20;99.90
15288;DHT22;7745;48.708;9.026;2023-12-07T13:07:28;4.10;99.90
15288;DHT22;7745;48.708;9.026;2023-12-07T13:09:55;4.00;99.90
15288;DHT22;7745;48.708;9.026;2023-12-07T13:12:21;4.10;99.90
15288;DHT22;7745;48.708;9.026;2023-12-07T13:14:49;4.00;99.90
15288;DHT22;7745;48.708;9.026;2023-12-07T13:17:16;4.10;99.90
15288;DHT22;7745;48.708;9.026;2023-12-07T13:19:43;4.00;99.90
15288;DHT22;7745;48.708;9.026;2023-12-07T13:22:11;4.20;99.90
15288;DHT22;7745;48.708;9.026;2023-12-07T13:24:38;3.90;99.90
15288;DHT22;7745;48.708;9.026;2023-12-07T13:27:05;3.90;99.90
15288;DHT22;7745;48.708;9.026;2023-12-07T13:29:31;3.80;99.90
15288;DHT22;7745;48.708;9.026;2023-12-07T13:31:58;3.80;99.90
15288;DHT22;7745;48.708;9.026;2023-12-07T13:34:27;3.90;99.90
15288;DHT22;7745;48.708;9.026;2023-12-07T13:36:53;4.40;99.90
15288;DHT22;7745;48.708;9.026;2023-12-07T13:39:22;4.00;99.90
15288;DHT22;7745;48.708;9.026;2023-12-07T13:41:49;4.00;99.90
15288;DHT22;7745;48.708;9.026;2023-12-07T13:44:16;4.00;99.90
15288;DHT22;7745;48.708;9.026;2023-12-07T13:46:44;4.00;99.90
15288;DHT22;7745;48.708;9.026;2023-12-07T13:49:11;4.20;99.90
15288;DHT22;7745;48.708;9.026;2023-12-07T13:51:39;4.00;99.90
15288;DHT22;7745;48.708;9.026;2023-12-07T13:54:06;4.00;99.90
15288;DHT22;7745;48.708;9.026;2023-12-07T13:56:35;4.00;99.90
15288;DHT22;7745;48.708;9.026;2023-12-07T13:59:01;4.00;99.90
15288;DHT22;7745;48.708;9.026;2023-12-07T14:01:29;4.00;99.90
15288;DHT22;7745;48.708;9.026;2023-12-07T14:03:57;4.00;99.90
15288;DHT22;7745;48.708;9.026;2023-12-07T14:06:24;4.10;99.90
15288;DHT22;7745;48.708;9.026;2023-12-07T14:08:52;4.40;99.90
15288;DHT22;7745;48.708;9.026;2023-12-07T14:11:19;4.10;99.90
15288;DHT22;7745;48.708;9.026;2023-12-07T14:13:47;4.10;99.90
15288;DHT22;7745;48.708;9.026;2023-12-07T14:16:14;4.00;99.90
15288;DHT22;7745;48.708;9.026;2023-12-07T14:18:41;3.90;99.90
15288;DHT22;7745;48.708;9.026;2023-12-07T14:21:08;3.80;99.90
15288;DHT22;7745;48.708;9.026;2023-12-07T14:23:34;3.80;99.90
15288;DHT22;7745;48.708;9.026;2023-12-07T14:26:01;3.60;99.90
15288;DHT22;7745;48.708;9.026;2023-12-07T14:28:28;3.50;99.90
15288;DHT22;7745;48.708;9.026;2023-12-07T14:30:57;3.50;99.90
15288;DHT22;7745;48.708;9.026;2023-12-07T14:33:24;3.40;99.90
15288;DHT22;7745;48.708;9.026;2023-12-07T14:35:51;3.30;99.90
15288;DHT22;7745;48.708;9.026;2023-12-07T14:38:18;3.30;99.90
15288;DHT22;7745;48.708;9.026;2023-12-07T14:40:45;3.30;99.90
15288;DHT22;7745;48.708;9.026;2023-12-07T14:43:11;3.20;99.90
15288;DHT22;7745;48.708;9.026;2023-12-07T14:45:38;3.20;99.90
15288;DHT22;7745;48.708;9.026;2023-12-07T14:48:06;3.10;99.90
15288;DHT22;7745;48.708;9.026;2023-12-07T14:50:33;3.10;99.90
15288;DHT22;7745;48.708;9.026;2023-12-07T14:53:00;3.10;99.90
15288;DHT22;7745;48.708;9.026;2023-12-07T14:55:26;3.00;99.90
15288;DHT22;7745;48.708;9.026;2023-12-07T14:57:53;2.90;99.90
15288;DHT22;7745;48.708;9.026;2023-12-07T15:00:20;2.90;99.90
15288;DHT22;7745;48.708;9.026;2023-12-07T15:02:47;2.80;99.90
15288;DHT22;7745;48.708;9.026;2023-12-07T15:05:15;2.70;99.90
15288;DHT22;7745;48.708;9.026;2023-12-07T15:07:42;2.70;99.90
15288;DHT22;7745;48.708;9.026;2023-12-07T15:10:09;2.70;99.90
15288;DHT22;7745;48.708;9.026;2023-12-07T15:12:36;2.60;99.90
15288;DHT22;7745;48.708;9.026;2023-12-07T15:15:04;2.50;99.90
15288;DHT22;7745;48.708;9.026;2023-12-07T15:17:32;2.50;99.90
15288;DHT22;7745;48.708;9.026;2023-12-07T15:19:59;2.40;99.90
15288;DHT22;7745;48.708;9.026;2023-12-07T15:22:27;2.40;99.90
15288;DHT22;7745;48.708;9.026;2023-12-07T15:24:54;2.30;99.90
15288;DHT22;7745;48.708;9.026;2023-12-07T15:27:21;2.30;99.90
15288;DHT22;7745;48.708;9.026;2023-12-07T15:29:50;2.20;99.90
15288;DHT22;7745;48.708;9.026;2023-12-07T15:32:17;2.20;99.90
15288;DHT22;7745;48.708;9.026;2023-12-07T15:34:44;2.20;99.90
15288;DHT22;7745;48.708;9.026;2023-12-07T15:37:10;2.10;99.90
15288;DHT22;7745;48.708;9.026;2023-12-07T15:39:39;2.10;99.90
15288;DHT22;7745;48.708;9.026;2023-12-07T15:42:07;2.30;99.90
15288;DHT22;7745;48.708;9.026;2023-12-07T15:44:34;2.00;99.90
15288;DHT22;7745;48.708;9.026;2023-12-07T15:47:01;1.90;99.90
15288;DHT22;7745;48.708;9.026;2023-12-07T15:49:28;1.80;99.90
15288;DHT22;7745;48.708;9.026;2023-12-07T15:51:54;1.80;99.90
15288;DHT22;7745;48.708;9.026;2023-12-07T15:54:21;1.70;99.90
15288;DHT22;7745;48.708;9.026;2023-12-07T15:56:49;1.70;99.90
15288;DHT22;7745;48.708;9.026;2023-12-07T15:59:16;1.60;99.90